PDT,Max TemperatureF,Mean TemperatureF,Min TemperatureF,Max Dew PointF,MeanDew PointF,Min DewpointF,Max Humidity, Mean Humidity, Min Humidity, Max Sea Level PressureIn, Mean Sea Level PressureIn, Min Sea Level PressureIn, Max VisibilityMiles, Mean VisibilityMiles, Min VisibilityMiles, Max Wind SpeedMPH, Mean Wind SpeedMPH, Max Gust SpeedMPH,PrecipitationIn, CloudCover, Events, WindDirDegrees
2012-8-1,89,76,62,60,55,42,93,57,21,30.02,29.97,29.91,10,9,5,14,6,23,0.00,0,,146
2012-8-2,87,75,63,58,56,53,84,58,32,29.97,29.91,29.84,10,10,10,14,6,18,0.00,0,,146
2012-8-3,84,74,63,59,58,55,84,62,40,29.93,29.86,29.78,10,8,3,13,6,16,0.00,2,,159
2012-8-4,83,73,63,60,59,58,90,69,47,29.90,29.86,29.83,10,9,5,12,6,,T,2,Rain,163
2012-8-5,91,77,63,61,59,57,84,60,36,29.95,29.92,29.87,10,10,10,13,5,21,0.00,0,,135
2012-8-6,102,85,67,59,57,54,73,47,21,29.96,29.91,29.85,10,10,10,12,5,18,0.00,0,,131
2012-8-7,100,86,71,60,58,53,68,45,21,29.91,29.86,29.81,10,10,10,13,4,21,0.00,0,,139
2012-8-8,100,86,72,60,58,55,61,43,24,29.89,29.84,29.79,10,10,10,14,5,25,0.00,0,,122
2012-8-9,102,88,73,58,57,54,57,40,23,29.87,29.81,29.75,10,10,10,16,5,21,0.00,0,,144
2012-8-10,100,87,73,59,57,54,57,40,23,29.78,29.73,29.64,10,10,10,14,6,23,0.00,0,,146
2012-8-11,101,88,75,62,58,51,60,42,24,29.78,29.73,29.70,10,10,10,16,5,18,0.00,0,,148
2012-8-12,101,89,76,62,58,52,60,40,19,29.80,29.76,29.70,10,10,10,13,5,18,0.00,0,,138
2012-8-13,98,87,75,62,59,55,60,44,28,29.80,29.76,29.72,10,10,10,13,5,17,0.00,0,,151
2012-8-14,97,84,71,61,58,54,66,47,27,29.81,29.76,29.70,10,10,10,12,6,16,0.00,0,,135
2012-8-15,92,81,70,59,55,45,66,44,22,29.83,29.79,29.75,10,10,10,15,5,21,0.00,0,,151
2012-8-16,98,85,72,59,50,39,49,32,15,29.86,29.82,29.77,10,10,10,13,4,17,0.00,0,,150
2012-8-17,99,88,76,55,50,44,47,32,16,29.88,29.84,29.78,10,10,10,13,5,18,T,0,,158
2012-8-18,95,85,75,60,56,51,54,42,29,29.89,29.84,29.77,10,10,10,13,6,17,0.00,0,,132
2012-8-19,95,84,72,58,56,52,57,42,26,29.86,29.81,29.75,10,10,10,13,5,20,0.00,0,,145
2012-8-20,92,82,71,63,59,56,68,51,34,29.87,29.84,29.78,10,10,10,14,5,18,0.00,0,,163
2012-8-21,88,79,70,64,62,57,79,61,43,29.88,29.85,29.81,10,10,10,14,7,20,0.00,0,,154
2012-8-22,84,76,67,64,63,61,84,68,51,29.91,29.87,29.82,10,10,8,15,7,25,0.00,1,,152
2012-8-23,84,75,65,64,62,61,87,69,51,29.95,29.88,29.82,10,8,5,14,6,24,0.00,3,,162
2012-8-24,85,75,65,63,61,58,87,65,43,29.91,29.86,29.80,10,8,5,13,6,15,0.00,4,,170
2012-8-25,82,73,63,61,59,56,87,66,45,29.91,29.85,29.79,10,8,5,14,6,18,0.00,4,,175
2012-8-26,86,74,62,58,54,41,84,53,21,29.96,29.89,29.84,10,9,6,12,5,15,0.00,3,,157
2012-8-27,95,78,61,56,42,24,68,38,8,29.95,29.90,29.84,10,10,10,12,4,21,0.00,0,,176
2012-8-28,98,84,70,55,50,41,46,32,17,29.89,29.84,29.78,10,10,10,12,4,16,0.00,0,,153
2012-8-29,96,86,76,62,58,52,60,44,28,29.81,29.77,29.71,10,10,10,14,6,20,0.00,0,,145
2012-8-30,95,84,72,65,60,50,73,52,30,29.82,29.77,29.74,10,10,10,21,5,26,T,1,Rain,146
2012-8-31,90,80,70,60,55,45,64,43,21,29.87,29.83,29.80,10,10,10,14,5,21,0.00,0,,156